sensor_id;sensor_type;location;lat;lon;timestamp;P1;durP1;ratioP1;P2;durP2;ratioP2
67798;SDS011;54596;43.216;27.904;2023-11-21T00:01:17;48.75;;;36.42;;
67798;SDS011;54596;43.216;27.904;2023-11-21T00:03:43;47.25;;;34.13;;
67798;SDS011;54596;43.216;27.904;2023-11-21T00:06:09;54.63;;;39.38;;
67798;SDS011;54596;43.216;27.904;2023-11-21T00:08:34;59.42;;;41.97;;
67798;SDS011;54596;43.216;27.904;2023-11-21T00:11:00;53.45;;;37.60;;
67798;SDS011;54596;43.216;27.904;2023-11-21T00:13:26;45.85;;;33.65;;
67798;SDS011;54596;43.216;27.904;2023-11-21T00:15:52;47.45;;;32.40;;
67798;SDS011;54596;43.216;27.904;2023-11-21T00:18:17;44.55;;;30.70;;
67798;SDS011;54596;43.216;27.904;2023-11-21T00:20:43;42.17;;;30.30;;
67798;SDS011;54596;43.216;27.904;2023-11-21T00:23:28;37.72;;;27.58;;
67798;SDS011;54596;43.216;27.904;2023-11-21T00:25:54;39.30;;;27.85;;
67798;SDS011;54596;43.216;27.904;2023-11-21T00:28:19;41.53;;;29.20;;
67798;SDS011;54596;43.216;27.904;2023-11-21T00:30:45;40.50;;;28.20;;
67798;SDS011;54596;43.216;27.904;2023-11-21T00:33:11;43.08;;;29.20;;
67798;SDS011;54596;43.216;27.904;2023-11-21T00:35:36;42.05;;;28.98;;
67798;SDS011;54596;43.216;27.904;2023-11-21T00:38:02;49.92;;;30.13;;
67798;SDS011;54596;43.216;27.904;2023-11-21T00:40:28;45.78;;;29.42;;
67798;SDS011;54596;43.216;27.904;2023-11-21T00:42:54;41.75;;;29.88;;
67798;SDS011;54596;43.216;27.904;2023-11-21T00:45:21;43.55;;;30.17;;
67798;SDS011;54596;43.216;27.904;2023-11-21T00:47:46;43.08;;;30.58;;
67798;SDS011;54596;43.216;27.904;2023-11-21T00:50:12;49.58;;;32.13;;
67798;SDS011;54596;43.216;27.904;2023-11-21T00:52:37;44.95;;;31.98;;
67798;SDS011;54596;43.216;27.904;2023-11-21T00:55:03;46.70;;;32.75;;
67798;SDS011;54596;43.216;27.904;2023-11-21T00:57:32;48.20;;;32.83;;
67798;SDS011;54596;43.216;27.904;2023-11-21T00:59:58;45.60;;;32.28;;
67798;SDS011;54596;43.216;27.904;2023-11-21T01:02:23;49.50;;;30.70;;
67798;SDS011;54596;43.216;27.904;2023-11-21T01:04:50;37.67;;;27.77;;
67798;SDS011;54596;43.216;27.904;2023-11-21T01:07:15;39.08;;;26.52;;
67798;SDS011;54596;43.216;27.904;2023-11-21T01:09:41;35.05;;;24.25;;
67798;SDS011;54596;43.216;27.904;2023-11-21T01:12:06;37.03;;;24.80;;
67798;SDS011;54596;43.216;27.904;2023-11-21T01:14:32;38.25;;;27.92;;
67798;SDS011;54596;43.216;27.904;2023-11-21T01:16:58;42.53;;;27.88;;
67798;SDS011;54596;43.216;27.904;2023-11-21T01:19:23;42.00;;;28.60;;
67798;SDS011;54596;43.216;27.904;2023-11-21T01:21:49;38.50;;;27.73;;
67798;SDS011;54596;43.216;27.904;2023-11-21T01:24:14;40.35;;;26.15;;
67798;SDS011;54596;43.216;27.904;2023-11-21T01:26:40;34.67;;;22.58;;
67798;SDS011;54596;43.216;27.904;2023-11-21T01:29:05;30.67;;;20.10;;
67798;SDS011;54596;43.216;27.904;2023-11-21T01:31:31;27.30;;;18.73;;
67798;SDS011;54596;43.216;27.904;2023-11-21T01:33:56;27.42;;;19.38;;
67798;SDS011;54596;43.216;27.904;2023-11-21T01:36:22;27.77;;;19.17;;
67798;SDS011;54596;43.216;27.904;2023-11-21T01:38:47;27.77;;;18.63;;
67798;SDS011;54596;43.216;27.904;2023-11-21T01:41:13;24.70;;;17.92;;
67798;SDS011;54596;43.216;27.904;2023-11-21T01:43:41;25.00;;;17.98;;
67798;SDS011;54596;43.216;27.904;2023-11-21T01:46:06;26.55;;;17.98;;
67798;SDS011;54596;43.216;27.904;2023-11-21T01:48:33;26.77;;;17.60;;
67798;SDS011;54596;43.216;27.904;2023-11-21T01:51:00;26.98;;;17.30;;
67798;SDS011;54596;43.216;27.904;2023-11-21T01:53:26;26.88;;;17.67;;
67798;SDS011;54596;43.216;27.904;2023-11-21T01:55:53;26.77;;;17.65;;
67798;SDS011;54596;43.216;27.904;2023-11-21T01:58:20;27.08;;;17.08;;
67798;SDS011;54596;43.216;27.904;2023-11-21T02:00:46;27.08;;;18.38;;
67798;SDS011;54596;43.216;27.904;2023-11-21T02:03:15;27.35;;;18.08;;
67798;SDS011;54596;43.216;27.904;2023-11-21T02:05:41;28.77;;;18.98;;
67798;SDS011;54596;43.216;27.904;2023-11-21T02:08:07;30.80;;;19.05;;
67798;SDS011;54596;43.216;27.904;2023-11-21T02:10:34;29.77;;;20.08;;
67798;SDS011;54596;43.216;27.904;2023-11-21T02:13:02;39.90;;;20.48;;
67798;SDS011;54596;43.216;27.904;2023-11-21T02:15:28;29.20;;;19.75;;
67798;SDS011;54596;43.216;27.904;2023-11-21T02:17:54;27.08;;;18.58;;
67798;SDS011;54596;43.216;27.904;2023-11-21T02:20:20;26.25;;;18.35;;
67798;SDS011;54596;43.216;27.904;2023-11-21T02:22:51;27.52;;;18.92;;
67798;SDS011;54596;43.216;27.904;2023-11-21T02:25:27;26.52;;;18.80;;
67798;SDS011;54596;43.216;27.904;2023-11-21T02:27:55;26.48;;;19.10;;
67798;SDS011;54596;43.216;27.904;2023-11-21T02:30:24;29.55;;;18.63;;
67798;SDS011;54596;43.216;27.904;2023-11-21T02:32:51;29.60;;;18.65;;
67798;SDS011;54596;43.216;27.904;2023-11-21T02:35:20;25.85;;;17.67;;
67798;SDS011;54596;43.216;27.904;2023-11-21T02:37:46;25.27;;;17.35;;
67798;SDS011;54596;43.216;27.904;2023-11-21T02:40:12;26.50;;;17.23;;
67798;SDS011;54596;43.216;27.904;2023-11-21T02:42:41;24.40;;;16.42;;
67798;SDS011;54596;43.216;27.904;2023-11-21T02:45:07;21.95;;;15.57;;
67798;SDS011;54596;43.216;27.904;2023-11-21T02:47:33;19.67;;;13.85;;
67798;SDS011;54596;43.216;27.904;2023-11-21T02:49:59;21.73;;;14.25;;
67798;SDS011;54596;43.216;27.904;2023-11-21T02:52:24;22.70;;;15.10;;
67798;SDS011;54596;43.216;27.904;2023-11-21T02:54:50;21.45;;;13.95;;
67798;SDS011;54596;43.216;27.904;2023-11-21T02:57:16;21.42;;;13.25;;
67798;SDS011;54596;43.216;27.904;2023-11-21T02:59:42;20.10;;;12.40;;
67798;SDS011;54596;43.216;27.904;2023-11-21T03:02:07;17.88;;;11.93;;
67798;SDS011;54596;43.216;27.904;2023-11-21T03:04:33;18.27;;;11.10;;
67798;SDS011;54596;43.216;27.904;2023-11-21T03:06:59;17.80;;;11.30;;
67798;SDS011;54596;43.216;27.904;2023-11-21T03:09:25;15.55;;;10.43;;
67798;SDS011;54596;43.216;27.904;2023-11-21T03:11:52;16.15;;;9.82;;
67798;SDS011;54596;43.216;27.904;2023-11-21T03:14:18;14.52;;;8.48;;
67798;SDS011;54596;43.216;27.904;2023-11-21T03:16:43;15.23;;;8.98;;
67798;SDS011;54596;43.216;27.904;2023-11-21T03:19:10;15.30;;;8.40;;
67798;SDS011;54596;43.216;27.904;2023-11-21T03:21:36;15.80;;;8.60;;
67798;SDS011;54596;43.216;27.904;2023-11-21T03:24:02;13.82;;;8.52;;
67798;SDS011;54596;43.216;27.904;2023-11-21T03:26:28;14.90;;;9.02;;
67798;SDS011;54596;43.216;27.904;2023-11-21T03:28:54;14.88;;;9.07;;
67798;SDS011;54596;43.216;27.904;2023-11-21T03:31:20;15.82;;;9.05;;
67798;SDS011;54596;43.216;27.904;2023-11-21T03:33:46;17.83;;;9.90;;
67798;SDS011;54596;43.216;27.904;2023-11-21T03:36:12;18.20;;;10.18;;
67798;SDS011;54596;43.216;27.904;2023-11-21T03:38:39;18.90;;;10.30;;
67798;SDS011;54596;43.216;27.904;2023-11-21T03:41:05;16.00;;;9.13;;
67798;SDS011;54596;43.216;27.904;2023-11-21T03:43:31;15.15;;;8.60;;
67798;SDS011;54596;43.216;27.904;2023-11-21T03:45:57;15.45;;;9.05;;
67798;SDS011;54596;43.216;27.904;2023-11-21T03:48:22;14.63;;;8.80;;
67798;SDS011;54596;43.216;27.904;2023-11-21T03:50:48;16.58;;;9.48;;
67798;SDS011;54596;43.216;27.904;2023-11-21T03:53:13;17.80;;;10.02;;
67798;SDS011;54596;43.216;27.904;2023-11-21T03:55:39;29.35;;;19.35;;
67798;SDS011;54596;43.216;27.904;2023-11-21T03:58:05;24.63;;;15.93;;
67798;SDS011;54596;43.216;27.904;2023-11-21T04:00:30;44.45;;;30.35;;
67798;SDS011;54596;43.216;27.904;2023-11-21T04:02:56;84.03;;;70.80;;
67798;SDS011;54596;43.216;27.904;2023-11-21T04:05:23;75.88;;;63.53;;
67798;SDS011;54596;43.216;27.904;2023-11-21T04:07:51;66.72;;;50.78;;
67798;SDS011;54596;43.216;27.904;2023-11-21T04:10:17;54.55;;;44.05;;
67798;SDS011;54596;43.216;27.904;2023-11-21T04:12:43;42.40;;;31.50;;
67798;SDS011;54596;43.216;27.904;2023-11-21T04:15:10;38.65;;;27.83;;
67798;SDS011;54596;43.216;27.904;2023-11-21T04:17:36;40.50;;;25.23;;
67798;SDS011;54596;43.216;27.904;2023-11-21T04:20:02;35.83;;;23.85;;
67798;SDS011;54596;43.216;27.904;2023-11-21T04:22:33;34.03;;;23.77;;
67798;SDS011;54596;43.216;27.904;2023-11-21T04:24:59;32.65;;;22.95;;
67798;SDS011;54596;43.216;27.904;2023-11-21T04:27:24;34.28;;;23.67;;
67798;SDS011;54596;43.216;27.904;2023-11-21T04:29:50;34.22;;;22.48;;
67798;SDS011;54596;43.216;27.904;2023-11-21T04:32:15;34.53;;;22.35;;
67798;SDS011;54596;43.216;27.904;2023-11-21T04:34:41;30.73;;;22.10;;
67798;SDS011;54596;43.216;27.904;2023-11-21T04:37:06;30.48;;;20.98;;
67798;SDS011;54596;43.216;27.904;2023-11-21T04:39:32;33.50;;;21.58;;
67798;SDS011;54596;43.216;27.904;2023-11-21T04:41:57;35.53;;;23.27;;
67798;SDS011;54596;43.216;27.904;2023-11-21T04:44:23;36.30;;;22.20;;
67798;SDS011;54596;43.216;27.904;2023-11-21T04:46:48;34.47;;;22.48;;
67798;SDS011;54596;43.216;27.904;2023-11-21T04:49:14;32.20;;;21.15;;
67798;SDS011;54596;43.216;27.904;2023-11-21T04:51:40;32.30;;;21.20;;
67798;SDS011;54596;43.216;27.904;2023-11-21T04:54:05;32.20;;;20.55;;
67798;SDS011;54596;43.216;27.904;2023-11-21T04:56:31;36.60;;;21.17;;
67798;SDS011;54596;43.216;27.904;2023-11-21T04:58:56;30.60;;;20.75;;
67798;SDS011;54596;43.216;27.904;2023-11-21T05:01:22;34.17;;;20.92;;
67798;SDS011;54596;43.216;27.904;2023-11-21T05:03:47;35.05;;;21.25;;
67798;SDS011;54596;43.216;27.904;2023-11-21T05:06:14;35.15;;;21.65;;
67798;SDS011;54596;43.216;27.904;2023-11-21T05:08:39;34.92;;;21.75;;
67798;SDS011;54596;43.216;27.904;2023-11-21T05:11:05;33.08;;;21.35;;
67798;SDS011;54596;43.216;27.904;2023-11-21T05:13:35;37.75;;;21.73;;
67798;SDS011;54596;43.216;27.904;2023-11-21T05:16:01;37.25;;;22.30;;
67798;SDS011;54596;43.216;27.904;2023-11-21T05:18:30;38.92;;;23.17;;
67798;SDS011;54596;43.216;27.904;2023-11-21T05:20:56;37.47;;;23.60;;
67798;SDS011;54596;43.216;27.904;2023-11-21T05:23:21;40.53;;;23.00;;
67798;SDS011;54596;43.216;27.904;2023-11-21T05:25:47;34.25;;;22.98;;
67798;SDS011;54596;43.216;27.904;2023-11-21T05:28:13;55.40;;;23.73;;
67798;SDS011;54596;43.216;27.904;2023-11-21T05:30:38;85.82;;;26.13;;
67798;SDS011;54596;43.216;27.904;2023-11-21T05:33:04;39.20;;;21.80;;
67798;SDS011;54596;43.216;27.904;2023-11-21T05:35:30;30.35;;;19.80;;
67798;SDS011;54596;43.216;27.904;2023-11-21T05:37:56;29.05;;;18.13;;
67798;SDS011;54596;43.216;27.904;2023-11-21T05:40:22;34.03;;;20.10;;
67798;SDS011;54596;43.216;27.904;2023-11-21T05:42:47;26.23;;;17.10;;
67798;SDS011;54596;43.216;27.904;2023-11-21T05:45:13;33.67;;;18.90;;
67798;SDS011;54596;43.216;27.904;2023-11-21T05:47:43;31.75;;;19.13;;
67798;SDS011;54596;43.216;27.904;2023-11-21T05:50:11;43.25;;;24.20;;
67798;SDS011;54596;43.216;27.904;2023-11-21T05:52:42;38.53;;;24.25;;
67798;SDS011;54596;43.216;27.904;2023-11-21T05:55:10;36.90;;;26.50;;
67798;SDS011;54596;43.216;27.904;2023-11-21T05:57:37;52.58;;;42.03;;
67798;SDS011;54596;43.216;27.904;2023-11-21T06:00:04;57.45;;;40.08;;
67798;SDS011;54596;43.216;27.904;2023-11-21T06:02:40;49.47;;;35.33;;
67798;SDS011;54596;43.216;27.904;2023-11-21T06:05:07;52.30;;;33.90;;
67798;SDS011;54596;43.216;27.904;2023-11-21T06:07:33;51.97;;;32.95;;
67798;SDS011;54596;43.216;27.904;2023-11-21T06:10:01;48.20;;;29.05;;
67798;SDS011;54596;43.216;27.904;2023-11-21T06:12:34;47.72;;;28.52;;
67798;SDS011;54596;43.216;27.904;2023-11-21T06:15:01;42.35;;;24.40;;
67798;SDS011;54596;43.216;27.904;2023-11-21T06:17:30;38.05;;;22.20;;
67798;SDS011;54596;43.216;27.904;2023-11-21T06:20:04;34.57;;;20.60;;
67798;SDS011;54596;43.216;27.904;2023-11-21T06:22:34;38.40;;;21.73;;
67798;SDS011;54596;43.216;27.904;2023-11-21T06:25:03;37.88;;;24.05;;
67798;SDS011;54596;43.216;27.904;2023-11-21T06:27:33;35.13;;;21.67;;
67798;SDS011;54596;43.216;27.904;2023-11-21T06:30:01;31.15;;;18.58;;
67798;SDS011;54596;43.216;27.904;2023-11-21T06:32:27;31.65;;;19.30;;
67798;SDS011;54596;43.216;27.904;2023-11-21T06:34:54;32.83;;;19.45;;
67798;SDS011;54596;43.216;27.904;2023-11-21T06:37:20;33.13;;;20.02;;
67798;SDS011;54596;43.216;27.904;2023-11-21T06:39:48;34.85;;;21.52;;
67798;SDS011;54596;43.216;27.904;2023-11-21T06:42:17;38.22;;;23.48;;
67798;SDS011;54596;43.216;27.904;2023-11-21T06:44:44;32.75;;;23.20;;
67798;SDS011;54596;43.216;27.904;2023-11-21T06:47:10;37.38;;;24.92;;
67798;SDS011;54596;43.216;27.904;2023-11-21T06:49:36;41.65;;;24.35;;
67798;SDS011;54596;43.216;27.904;2023-11-21T06:52:01;33.58;;;21.35;;
67798;SDS011;54596;43.216;27.904;2023-11-21T06:54:28;34.90;;;22.17;;
67798;SDS011;54596;43.216;27.904;2023-11-21T06:56:56;36.50;;;20.95;;
67798;SDS011;54596;43.216;27.904;2023-11-21T06:59:21;33.05;;;19.08;;
67798;SDS011;54596;43.216;27.904;2023-11-21T07:01:47;35.80;;;20.67;;
67798;SDS011;54596;43.216;27.904;2023-11-21T07:04:13;34.70;;;19.55;;
67798;SDS011;54596;43.216;27.904;2023-11-21T07:06:38;33.53;;;20.48;;
67798;SDS011;54596;43.216;27.904;2023-11-21T07:09:04;39.67;;;22.08;;
67798;SDS011;54596;43.216;27.904;2023-11-21T07:11:29;39.50;;;24.05;;
67798;SDS011;54596;43.216;27.904;2023-11-21T07:13:55;39.33;;;22.88;;
67798;SDS011;54596;43.216;27.904;2023-11-21T07:16:20;36.55;;;22.25;;
67798;SDS011;54596;43.216;27.904;2023-11-21T07:18:47;37.42;;;22.27;;
67798;SDS011;54596;43.216;27.904;2023-11-21T07:21:14;43.58;;;23.27;;
67798;SDS011;54596;43.216;27.904;2023-11-21T07:23:41;37.45;;;21.77;;
67798;SDS011;54596;43.216;27.904;2023-11-21T07:26:06;39.42;;;21.85;;
67798;SDS011;54596;43.216;27.904;2023-11-21T07:28:34;41.47;;;22.48;;
67798;SDS011;54596;43.216;27.904;2023-11-21T07:31:01;42.47;;;24.33;;
67798;SDS011;54596;43.216;27.904;2023-11-21T07:33:26;47.05;;;28.35;;
67798;SDS011;54596;43.216;27.904;2023-11-21T07:35:52;45.80;;;27.90;;
67798;SDS011;54596;43.216;27.904;2023-11-21T07:38:18;54.58;;;28.42;;
67798;SDS011;54596;43.216;27.904;2023-11-21T07:40:43;41.97;;;27.23;;
67798;SDS011;54596;43.216;27.904;2023-11-21T07:43:09;45.08;;;25.92;;
67798;SDS011;54596;43.216;27.904;2023-11-21T07:45:35;39.42;;;25.58;;
67798;SDS011;54596;43.216;27.904;2023-11-21T07:48:01;42.70;;;25.88;;
67798;SDS011;54596;43.216;27.904;2023-11-21T07:50:28;43.85;;;21.48;;
67798;SDS011;54596;43.216;27.904;2023-11-21T07:52:54;32.58;;;21.00;;
67798;SDS011;54596;43.216;27.904;2023-11-21T07:55:20;34.53;;;20.65;;
67798;SDS011;54596;43.216;27.904;2023-11-21T07:57:46;40.33;;;20.42;;
67798;SDS011;54596;43.216;27.904;2023-11-21T08:00:12;40.28;;;20.10;;
67798;SDS011;54596;43.216;27.904;2023-11-21T08:02:40;31.73;;;17.58;;
67798;SDS011;54596;43.216;27.904;2023-11-21T08:05:11;42.88;;;24.50;;
67798;SDS011;54596;43.216;27.904;2023-11-21T08:07:37;38.30;;;23.65;;
67798;SDS011;54596;43.216;27.904;2023-11-21T08:10:03;27.20;;;15.15;;
67798;SDS011;54596;43.216;27.904;2023-11-21T08:12:30;25.08;;;12.77;;
67798;SDS011;54596;43.216;27.904;2023-11-21T08:14:58;24.98;;;13.13;;
67798;SDS011;54596;43.216;27.904;2023-11-21T08:17:25;32.03;;;14.80;;
67798;SDS011;54596;43.216;27.904;2023-11-21T08:19:50;30.25;;;14.68;;
67798;SDS011;54596;43.216;27.904;2023-11-21T08:22:16;30.63;;;14.52;;
67798;SDS011;54596;43.216;27.904;2023-11-21T08:24:43;28.20;;;14.38;;
67798;SDS011;54596;43.216;27.904;2023-11-21T08:27:11;33.05;;;17.08;;
67798;SDS011;54596;43.216;27.904;2023-11-21T08:29:41;30.52;;;16.80;;
67798;SDS011;54596;43.216;27.904;2023-11-21T08:32:07;37.30;;;17.75;;
67798;SDS011;54596;43.216;27.904;2023-11-21T08:34:32;32.30;;;15.85;;
67798;SDS011;54596;43.216;27.904;2023-11-21T08:36:58;31.58;;;16.17;;
67798;SDS011;54596;43.216;27.904;2023-11-21T08:39:24;31.77;;;15.05;;
67798;SDS011;54596;43.216;27.904;2023-11-21T08:41:50;30.27;;;14.60;;
67798;SDS011;54596;43.216;27.904;2023-11-21T08:44:16;31.45;;;13.95;;
67798;SDS011;54596;43.216;27.904;2023-11-21T08:46:43;30.55;;;13.15;;
67798;SDS011;54596;43.216;27.904;2023-11-21T08:49:13;30.58;;;13.00;;
67798;SDS011;54596;43.216;27.904;2023-11-21T08:51:40;21.10;;;11.35;;
67798;SDS011;54596;43.216;27.904;2023-11-21T08:54:06;24.90;;;12.02;;
67798;SDS011;54596;43.216;27.904;2023-11-21T08:56:36;24.00;;;11.75;;
67798;SDS011;54596;43.216;27.904;2023-11-21T08:59:01;28.55;;;13.02;;
67798;SDS011;54596;43.216;27.904;2023-11-21T09:01:30;28.55;;;13.85;;
67798;SDS011;54596;43.216;27.904;2023-11-21T09:03:57;26.73;;;14.80;;
67798;SDS011;54596;43.216;27.904;2023-11-21T09:06:23;39.15;;;15.20;;
67798;SDS011;54596;43.216;27.904;2023-11-21T09:08:49;23.98;;;10.90;;
67798;SDS011;54596;43.216;27.904;2023-11-21T09:11:15;24.35;;;9.80;;
67798;SDS011;54596;43.216;27.904;2023-11-21T09:13:40;19.23;;;6.78;;
67798;SDS011;54596;43.216;27.904;2023-11-21T09:16:06;13.68;;;5.20;;
67798;SDS011;54596;43.216;27.904;2023-11-21T09:18:32;12.35;;;4.07;;
67798;SDS011;54596;43.216;27.904;2023-11-21T09:20:57;13.43;;;4.65;;
67798;SDS011;54596;43.216;27.904;2023-11-21T09:23:23;15.05;;;5.40;;
67798;SDS011;54596;43.216;27.904;2023-11-21T09:25:49;18.40;;;5.53;;
67798;SDS011;54596;43.216;27.904;2023-11-21T09:28:16;12.75;;;4.72;;
67798;SDS011;54596;43.216;27.904;2023-11-21T09:30:42;17.67;;;5.18;;
67798;SDS011;54596;43.216;27.904;2023-11-21T09:33:08;19.42;;;5.43;;
67798;SDS011;54596;43.216;27.904;2023-11-21T09:35:38;15.25;;;5.78;;
67798;SDS011;54596;43.216;27.904;2023-11-21T09:38:04;14.23;;;6.22;;
67798;SDS011;54596;43.216;27.904;2023-11-21T09:43:02;14.15;;;5.82;;
67798;SDS011;54596;43.216;27.904;2023-11-21T09:45:41;18.40;;;6.00;;
67798;SDS011;54596;43.216;27.904;2023-11-21T09:48:10;19.92;;;6.25;;
67798;SDS011;54596;43.216;27.904;2023-11-21T09:50:37;17.85;;;6.55;;
67798;SDS011;54596;43.216;27.904;2023-11-21T09:53:08;23.75;;;6.57;;
67798;SDS011;54596;43.216;27.904;2023-11-21T09:55:39;15.40;;;6.55;;
67798;SDS011;54596;43.216;27.904;2023-11-21T09:58:09;19.00;;;5.53;;
67798;SDS011;54596;43.216;27.904;2023-11-21T10:00:39;14.98;;;5.35;;
67798;SDS011;54596;43.216;27.904;2023-11-21T10:05:35;16.88;;;6.30;;
67798;SDS011;54596;43.216;27.904;2023-11-21T10:08:03;20.27;;;6.35;;
67798;SDS011;54596;43.216;27.904;2023-11-21T10:10:32;13.48;;;5.93;;
67798;SDS011;54596;43.216;27.904;2023-11-21T10:13:00;17.63;;;5.28;;
67798;SDS011;54596;43.216;27.904;2023-11-21T10:15:28;15.52;;;5.40;;
67798;SDS011;54596;43.216;27.904;2023-11-21T10:17:55;11.68;;;4.60;;
67798;SDS011;54596;43.216;27.904;2023-11-21T10:20:21;15.50;;;4.82;;
67798;SDS011;54596;43.216;27.904;2023-11-21T10:22:49;13.23;;;4.45;;
67798;SDS011;54596;43.216;27.904;2023-11-21T10:25:15;16.48;;;6.28;;
67798;SDS011;54596;43.216;27.904;2023-11-21T10:27:41;21.65;;;7.38;;
67798;SDS011;54596;43.216;27.904;2023-11-21T10:30:08;16.50;;;6.93;;
67798;SDS011;54596;43.216;27.904;2023-11-21T10:32:41;15.45;;;5.72;;
67798;SDS011;54596;43.216;27.904;2023-11-21T10:35:08;13.90;;;5.82;;
67798;SDS011;54596;43.216;27.904;2023-11-21T10:37:40;21.77;;;7.07;;
67798;SDS011;54596;43.216;27.904;2023-11-21T10:40:06;20.33;;;8.85;;
67798;SDS011;54596;43.216;27.904;2023-11-21T10:42:33;13.43;;;6.03;;
67798;SDS011;54596;43.216;27.904;2023-11-21T10:44:58;27.70;;;7.72;;
67798;SDS011;54596;43.216;27.904;2023-11-21T10:47:25;24.92;;;8.65;;
67798;SDS011;54596;43.216;27.904;2023-11-21T10:49:51;24.17;;;9.23;;
67798;SDS011;54596;43.216;27.904;2023-11-21T10:52:20;18.38;;;7.65;;
67798;SDS011;54596;43.216;27.904;2023-11-21T10:54:46;19.08;;;7.15;;
67798;SDS011;54596;43.216;27.904;2023-11-21T10:57:13;23.80;;;9.60;;
67798;SDS011;54596;43.216;27.904;2023-11-21T10:59:42;23.75;;;8.93;;
67798;SDS011;54596;43.216;27.904;2023-11-21T11:02:18;19.70;;;7.70;;
67798;SDS011;54596;43.216;27.904;2023-11-21T11:04:50;25.55;;;8.45;;
67798;SDS011;54596;43.216;27.904;2023-11-21T11:07:17;17.27;;;6.70;;
67798;SDS011;54596;43.216;27.904;2023-11-21T11:09:45;19.70;;;7.95;;
67798;SDS011;54596;43.216;27.904;2023-11-21T11:12:12;19.08;;;7.82;;
67798;SDS011;54596;43.216;27.904;2023-11-21T11:14:40;23.42;;;7.70;;
67798;SDS011;54596;43.216;27.904;2023-11-21T11:17:06;43.75;;;8.45;;
67798;SDS011;54596;43.216;27.904;2023-11-21T11:19:33;21.40;;;7.90;;
67798;SDS011;54596;43.216;27.904;2023-11-21T11:22:19;15.07;;;6.50;;
67798;SDS011;54596;43.216;27.904;2023-11-21T11:27:59;19.20;;;6.88;;
67798;SDS011;54596;43.216;27.904;2023-11-21T11:30:41;14.15;;;5.35;;
67798;SDS011;54596;43.216;27.904;2023-11-21T11:33:27;13.35;;;5.32;;
67798;SDS011;54596;43.216;27.904;2023-11-21T11:36:13;13.20;;;5.78;;
67798;SDS011;54596;43.216;27.904;2023-11-21T11:38:46;15.45;;;5.55;;
67798;SDS011;54596;43.216;27.904;2023-11-21T11:41:15;33.28;;;6.30;;
67798;SDS011;54596;43.216;27.904;2023-11-21T11:43:50;17.50;;;5.72;;
67798;SDS011;54596;43.216;27.904;2023-11-21T11:46:15;19.83;;;5.03;;
67798;SDS011;54596;43.216;27.904;2023-11-21T11:48:41;15.48;;;4.90;;
67798;SDS011;54596;43.216;27.904;2023-11-21T11:51:10;13.93;;;5.43;;
67798;SDS011;54596;43.216;27.904;2023-11-21T11:53:40;18.02;;;5.32;;
67798;SDS011;54596;43.216;27.904;2023-11-21T11:56:22;14.07;;;5.20;;
67798;SDS011;54596;43.216;27.904;2023-11-21T11:59:03;11.95;;;3.70;;
67798;SDS011;54596;43.216;27.904;2023-11-21T12:01:31;12.45;;;3.72;;
67798;SDS011;54596;43.216;27.904;2023-11-21T12:07:04;11.40;;;3.40;;
67798;SDS011;54596;43.216;27.904;2023-11-21T12:09:30;18.45;;;5.65;;
67798;SDS011;54596;43.216;27.904;2023-11-21T12:11:56;14.40;;;5.93;;
67798;SDS011;54596;43.216;27.904;2023-11-21T12:14:22;15.80;;;6.00;;
67798;SDS011;54596;43.216;27.904;2023-11-21T12:16:48;14.85;;;6.40;;
67798;SDS011;54596;43.216;27.904;2023-11-21T12:19:14;14.57;;;6.07;;
67798;SDS011;54596;43.216;27.904;2023-11-21T12:21:40;18.70;;;6.60;;
67798;SDS011;54596;43.216;27.904;2023-11-21T12:24:13;14.80;;;6.30;;
67798;SDS011;54596;43.216;27.904;2023-11-21T12:26:41;17.90;;;5.93;;
67798;SDS011;54596;43.216;27.904;2023-11-21T12:29:07;18.95;;;6.47;;
67798;SDS011;54596;43.216;27.904;2023-11-21T12:31:33;17.95;;;5.82;;
67798;SDS011;54596;43.216;27.904;2023-11-21T12:34:02;13.77;;;6.13;;
67798;SDS011;54596;43.216;27.904;2023-11-21T12:36:29;14.75;;;6.28;;
67798;SDS011;54596;43.216;27.904;2023-11-21T12:38:55;14.25;;;6.05;;
67798;SDS011;54596;43.216;27.904;2023-11-21T12:41:21;16.10;;;6.00;;
67798;SDS011;54596;43.216;27.904;2023-11-21T12:43:47;13.88;;;6.00;;
67798;SDS011;54596;43.216;27.904;2023-11-21T12:46:13;13.00;;;5.50;;
67798;SDS011;54596;43.216;27.904;2023-11-21T12:48:43;13.77;;;5.40;;
67798;SDS011;54596;43.216;27.904;2023-11-21T12:51:10;14.02;;;5.20;;
67798;SDS011;54596;43.216;27.904;2023-11-21T12:53:37;13.40;;;5.40;;
67798;SDS011;54596;43.216;27.904;2023-11-21T12:56:09;16.05;;;5.57;;
67798;SDS011;54596;43.216;27.904;2023-11-21T12:58:36;15.07;;;5.03;;
67798;SDS011;54596;43.216;27.904;2023-11-21T13:01:04;12.20;;;4.82;;
67798;SDS011;54596;43.216;27.904;2023-11-21T13:03:31;11.95;;;5.40;;
67798;SDS011;54596;43.216;27.904;2023-11-21T13:05:57;11.90;;;4.90;;
67798;SDS011;54596;43.216;27.904;2023-11-21T13:08:24;13.07;;;5.50;;
67798;SDS011;54596;43.216;27.904;2023-11-21T13:10:52;14.82;;;5.03;;
67798;SDS011;54596;43.216;27.904;2023-11-21T13:13:20;16.50;;;5.85;;
67798;SDS011;54596;43.216;27.904;2023-11-21T13:18:15;18.35;;;7.07;;
67798;SDS011;54596;43.216;27.904;2023-11-21T13:20:42;12.57;;;5.20;;
67798;SDS011;54596;43.216;27.904;2023-11-21T13:23:08;13.23;;;4.65;;
67798;SDS011;54596;43.216;27.904;2023-11-21T13:25:39;14.43;;;4.50;;
67798;SDS011;54596;43.216;27.904;2023-11-21T13:28:10;14.05;;;4.72;;
67798;SDS011;54596;43.216;27.904;2023-11-21T13:30:36;11.57;;;4.15;;
67798;SDS011;54596;43.216;27.904;2023-11-21T13:33:04;9.35;;;3.70;;
67798;SDS011;54596;43.216;27.904;2023-11-21T13:35:31;11.20;;;4.05;;
67798;SDS011;54596;43.216;27.904;2023-11-21T13:38:06;14.05;;;4.75;;
67798;SDS011;54596;43.216;27.904;2023-11-21T13:40:37;11.43;;;3.92;;
67798;SDS011;54596;43.216;27.904;2023-11-21T13:43:14;10.82;;;4.15;;
67798;SDS011;54596;43.216;27.904;2023-11-21T13:45:42;15.10;;;4.07;;
67798;SDS011;54596;43.216;27.904;2023-11-21T13:48:09;11.35;;;4.32;;
67798;SDS011;54596;43.216;27.904;2023-11-21T13:50:36;21.85;;;4.72;;
67798;SDS011;54596;43.216;27.904;2023-11-21T13:53:02;10.75;;;3.78;;
67798;SDS011;54596;43.216;27.904;2023-11-21T13:55:51;9.32;;;3.33;;
67798;SDS011;54596;43.216;27.904;2023-11-21T13:58:25;11.70;;;3.85;;
67798;SDS011;54596;43.216;27.904;2023-11-21T14:01:11;8.77;;;3.25;;
67798;SDS011;54596;43.216;27.904;2023-11-21T14:04:09;12.10;;;3.42;;
67798;SDS011;54596;43.216;27.904;2023-11-21T14:06:43;11.25;;;3.70;;
67798;SDS011;54596;43.216;27.904;2023-11-21T14:09:19;10.20;;;3.90;;
67798;SDS011;54596;43.216;27.904;2023-11-21T14:11:53;13.10;;;4.07;;
67798;SDS011;54596;43.216;27.904;2023-11-21T14:14:22;13.23;;;4.05;;
67798;SDS011;54596;43.216;27.904;2023-11-21T14:16:50;18.13;;;4.40;;
67798;SDS011;54596;43.216;27.904;2023-11-21T14:19:16;15.45;;;4.47;;
67798;SDS011;54596;43.216;27.904;2023-11-21T14:21:42;14.25;;;4.30;;
67798;SDS011;54596;43.216;27.904;2023-11-21T14:24:11;10.85;;;3.80;;
67798;SDS011;54596;43.216;27.904;2023-11-21T14:26:41;12.45;;;4.43;;
67798;SDS011;54596;43.216;27.904;2023-11-21T14:29:08;10.52;;;4.55;;